Pride Of Bruges — PGJW — position and weather

sailwx.info

Track history (hours):
 
Tides and Currents Weather Stations Pressure Air Temp Water Temp Dewpoint Dewpoint Depression Visibility Wind Speed Wind Dir Waves Ship Positions

Pride Of Bruges

Operator: P&O Ferries

Last reported at 2017-Oct-20 18:45 UTC. Time now 2017-Oct-20 19:51 UTC.
Position N 51°37' E 002°47'.

Length 180 m; draft 5.8 m.

Type: Ship (hazmat cat B). MMSI: 244387000.

Date/timePositionNaut miles runAvg speedWind from/ knotsBaromVisibWave heightAir tempDewpointWater temp
2017-Oct-20 18:45N 51°37' E 002°47'314.4
2017-Oct-20 18:30N 51°34' E 002°50'714.7
2017-Oct-20 18:00N 51°28' E 002°56'713.8
2017-Oct-20 17:30N 51°24' E 003°06'510.2
2017-Oct-20 17:00N 51°21' E 003°12'0 0.8
2017-Oct-20 16:29N 51°20' E 003°11'0 0.0
2017-Oct-20 15:59N 51°20' E 003°11'0 0.0
2017-Oct-20 15:26N 51°20' E 003°11'0 0.0
2017-Oct-20 14:59N 51°20' E 003°11'0 0.0
2017-Oct-20 13:58N 51°20' E 003°11'0 0.0
2017-Oct-20 13:28N 51°20' E 003°11'0 0.0
2017-Oct-20 12:58N 51°20' E 003°11'0 0.0
2017-Oct-20 12:31N 51°20' E 003°11'0 0.0
2017-Oct-20 12:00N 51°20' E 003°11'0 0.0
2017-Oct-20 11:30N 51°20' E 003°11'0 0.0
2017-Oct-20 11:00N 51°20' E 003°11'0 0.0
2017-Oct-20 10:30N 51°20' E 003°11'0 0.0
2017-Oct-20 10:00N 51°20' E 003°11'0 0.0
2017-Oct-20 09:29N 51°20' E 003°11'0 0.0
2017-Oct-20 08:59N 51°20' E 003°11'0 0.0
2017-Oct-20 08:29N 51°20' E 003°11'0 0.0
2017-Oct-20 07:59N 51°20' E 003°11'0 0.0
2017-Oct-20 07:30N 51°20' E 003°11'1 2.1
2017-Oct-20 07:00N 51°21' E 003°12'815.5
2017-Oct-20 06:30N 51°25' E 003°01'816.2
2017-Oct-20 06:00N 51°29' E 002°50'6715.0
2017-Oct-20 01:32N 52°31' E 002°08'113.9
2017-Oct-20 01:29N 52°31' E 002°07'714.4
2017-Oct-20 01:00N 52°38' E 002°03'714.5
2017-Oct-20 00:30N 52°45' E 001°58'715.2
2017-Oct-20 00:01N 52°48' E 001°48'815.9
2017-Oct-19 23:31N 52°53' E 001°37'815.5
2017-Oct-19 23:00N 52°57' E 001°26'715.0
2017-Oct-19 22:31N 52°60' E 001°14'4515.3
2017-Oct-19 19:33N 53°30' E 000°18'114.7
2017-Oct-19 19:27N 53°31' E 000°17'715.6
2017-Oct-19 19:00N 53°34' E 000°06'816.7
2017-Oct-19 18:30N 53°37' W 000°07'714.5
2017-Oct-19 18:00N 53°43' W 000°15'2 3.7
2017-Oct-19 17:31N 53°45' W 000°16'0 0.1
2017-Oct-19 17:00N 53°45' W 000°16'0 0.0
2017-Oct-19 16:29N 53°45' W 000°16'0 0.0
2017-Oct-19 15:59N 53°45' W 000°16'0 0.0
2017-Oct-19 15:29N 53°45' W 000°16'0 0.0
2017-Oct-19 14:59N 53°45' W 000°16'0 0.0
2017-Oct-19 14:29N 53°45' W 000°16'0 0.0
2017-Oct-19 13:58N 53°45' W 000°16'0 0.0
2017-Oct-19 13:28N 53°45' W 000°16'0 0.0
2017-Oct-19 12:58N 53°45' W 000°16'0 0.0
2017-Oct-19 12:28N 53°45' W 000°16'0 0.0
2017-Oct-19 12:00N 53°45' W 000°16'0 0.0
2017-Oct-19 11:30N 53°45' W 000°16'0 0.0
2017-Oct-19 11:00N 53°45' W 000°16'0 0.0
2017-Oct-19 10:30N 53°45' W 000°16'0 0.0
2017-Oct-19 10:00N 53°45' W 000°16'0 0.0
2017-Oct-19 09:29N 53°45' W 000°16'0 0.0
2017-Oct-19 08:59N 53°45' W 000°16'0 0.0
2017-Oct-19 08:29N 53°45' W 000°16'0 0.0
2017-Oct-19 07:59N 53°45' W 000°16'0 0.0
2017-Oct-19 07:28N 53°45' W 000°16'0 0.3
2017-Oct-19 07:00N 53°44' W 000°16'1 2.4
2017-Oct-19 06:30N 53°44' W 000°15'713.1
2017-Oct-19 06:00N 53°38' W 000°09'814.7
2017-Oct-19 05:27N 53°35' E 000°04'3914.1
2017-Oct-19 02:40N 53°18' E 001°03'1 7.1
2017-Oct-19 02:30N 53°17' E 001°04'914.7
2017-Oct-19 01:54N 53°10' E 001°14'1715.4
2017-Oct-19 00:48N 52°58' E 001°34'516.2
2017-Oct-19 00:31N 52°55' E 001°39'1716.7
2017-Oct-18 23:29N 52°43' E 002°00'816.0
2017-Oct-18 23:01N 52°36' E 002°03'6814.5
2017-Oct-18 18:19N 51°34' E 002°49'515.8
2017-Oct-18 18:00N 51°30' E 002°54'815.6
2017-Oct-18 17:30N 51°25' E 003°03'713.7
2017-Oct-18 17:00N 51°21' E 003°12'1 1.4
2017-Oct-18 16:23N 51°20' E 003°11'0 0.0
2017-Oct-18 15:59N 51°20' E 003°11'0 0.0
2017-Oct-18 15:28N 51°20' E 003°11'0 0.0
2017-Oct-18 14:58N 51°20' E 003°11'0 0.0
2017-Oct-18 14:00N 51°20' E 003°11'0 0.0
2017-Oct-18 13:25N 51°20' E 003°11'0 0.0
2017-Oct-18 13:00N 51°20' E 003°11'0 0.0
2017-Oct-18 12:30N 51°20' E 003°11'0 0.0
2017-Oct-18 12:00N 51°20' E 003°11'0 0.0
2017-Oct-18 11:30N 51°20' E 003°11'0 0.0
2017-Oct-18 10:53N 51°20' E 003°11'0 0.0
2017-Oct-18 10:29N 51°20' E 003°11'0 0.0
2017-Oct-18 09:59N 51°20' E 003°11'0 0.0
2017-Oct-18 09:29N 51°20' E 003°11'0 0.0
2017-Oct-18 08:59N 51°20' E 003°11'0 0.0
2017-Oct-18 08:25N 51°20' E 003°11'0 0.0
2017-Oct-18 07:58N 51°20' E 003°11'0 0.0
2017-Oct-18 07:28N 51°20' E 003°11'0 0.0
2017-Oct-18 07:00N 51°20' E 003°11'2 4.4
2017-Oct-18 06:31N 51°22' E 003°11'714.6
2017-Oct-18 06:00N 51°25' E 002°60'715.0
2017-Oct-18 05:31N 51°30' E 002°50'815.1
2017-Oct-18 04:58N 51°36' E 002°41'715.1
2017-Oct-18 04:29N 51°43' E 002°38'715.5
2017-Oct-18 04:01N 51°50' E 002°34'816.2
2017-Oct-18 03:31N 51°57' E 002°29'816.1
2017-Oct-18 02:59N 52°05' E 002°24'815.9
2017-Oct-18 02:31N 52°12' E 002°20'815.8
2017-Oct-18 02:00N 52°20' E 002°15'815.5
2017-Oct-18 01:30N 52°27' E 002°10'1914.9
2017-Oct-18 00:13N 52°44' E 001°55'414.4
2017-Oct-17 23:58N 52°46' E 001°51'715.1
2017-Oct-17 23:31N 52°51' E 001°43'815.3
2017-Oct-17 22:59N 52°57' E 001°33'2016.0
2017-Oct-17 21:43N 53°12' E 001°11'816.2
2017-Oct-17 21:12N 53°18' E 001°02'616.2
2017-Oct-17 20:51N 53°22' E 000°54'2116.4
2017-Oct-17 19:33N 53°30' E 000°21'115.6
2017-Oct-17 19:28N 53°30' E 000°19'716.2
2017-Oct-17 19:01N 53°33' E 000°08'918.6
2017-Oct-17 18:31N 53°37' W 000°06'816.2
2017-Oct-17 18:00N 53°44' W 000°15'1 2.0
2017-Oct-17 17:30N 53°45' W 000°16'0 0.2
2017-Oct-17 17:00N 53°45' W 000°16'0 0.0
2017-Oct-17 16:30N 53°45' W 000°16'0 0.0
2017-Oct-17 16:00N 53°45' W 000°16'0 0.0
2017-Oct-17 15:30N 53°45' W 000°16'0 0.0
2017-Oct-17 15:00N 53°45' W 000°16'0 0.0
2017-Oct-17 14:30N 53°45' W 000°16'0 0.0
2017-Oct-17 14:00N 53°45' W 000°16'0 0.0
2017-Oct-17 13:30N 53°45' W 000°16'0 0.0
2017-Oct-17 13:00N 53°45' W 000°16'0 0.0
2017-Oct-17 12:30N 53°45' W 000°16'0 0.0
2017-Oct-17 12:00N 53°45' W 000°16'0 0.0
2017-Oct-17 11:30N 53°45' W 000°16'0 0.0
2017-Oct-17 11:00N 53°45' W 000°16'0 0.0
2017-Oct-17 10:30N 53°45' W 000°16'0 0.0
2017-Oct-17 10:00N 53°45' W 000°16'0 0.0
2017-Oct-17 09:30N 53°45' W 000°16'0 0.0
2017-Oct-17 09:00N 53°45' W 000°16'0 0.0
2017-Oct-17 08:30N 53°45' W 000°16'0 0.0
2017-Oct-17 08:00N 53°45' W 000°16'0 0.3
2017-Oct-17 07:30N 53°45' W 000°16'0 0.4
2017-Oct-17 07:00N 53°44' W 000°16'0 0.5
2017-Oct-17 06:30N 53°44' W 000°16'4 7.8
2017-Oct-17 06:00N 53°41' W 000°13'612.7
2017-Oct-17 05:30N 53°37' W 000°05'713.9
2017-Oct-17 05:01N 53°34' E 000°06'713.3
2017-Oct-17 04:30N 53°32' E 000°17'4814.0
2017-Oct-17 01:04N 52°60' E 001°16'116.9
2017-Oct-17 00:59N 52°59' E 001°18'1617.8
2017-Oct-17 00:04N 52°50' E 001°41'118.3
2017-Oct-17 00:01N 52°50' E 001°42'1018.2
2017-Oct-16 23:28N 52°44' E 001°55'1518.1
2017-Oct-16 22:40N 52°31' E 002°06'1217.1
2017-Oct-16 21:59N 52°20' E 002°13'815.9
2017-Oct-16 21:30N 52°13' E 002°18'815.6
2017-Oct-16 21:00N 52°06' E 002°22'815.5
2017-Oct-16 20:29N 51°58' E 002°26'1015.6
2017-Oct-16 19:51N 51°49' E 002°34'815.5
2017-Oct-16 19:22N 51°43' E 002°39'715.1
2017-Oct-16 18:53N 51°36' E 002°45'615.6
2017-Oct-16 18:30N 51°32' E 002°51'815.8
2017-Oct-16 18:00N 51°26' E 002°60'714.5
2017-Oct-16 17:31N 51°23' E 003°10'3 5.0
2017-Oct-16 17:00N 51°20' E 003°11'0 0.0
2017-Oct-16 16:30N 51°20' E 003°11'0 0.0
2017-Oct-16 16:00N 51°20' E 003°11'0 0.0
2017-Oct-16 15:26N 51°20' E 003°11'0 0.0
2017-Oct-16 14:59N 51°20' E 003°11'0 0.0
2017-Oct-16 14:29N 51°20' E 003°11'0 0.0
2017-Oct-16 13:26N 51°20' E 003°11'0 0.0
2017-Oct-16 12:58N 51°20' E 003°11'0 0.0
2017-Oct-16 12:28N 51°20' E 003°11'0 0.0
2017-Oct-16 11:58N 51°20' E 003°11'0 0.0
2017-Oct-16 11:28N 51°20' E 003°11'0 0.0
2017-Oct-16 10:57N 51°20' E 003°11'0 0.0
2017-Oct-16 10:30N 51°20' E 003°11'0 0.0
2017-Oct-16 09:57N 51°20' E 003°11'0 0.0
2017-Oct-16 09:30N 51°20' E 003°11'0 0.0
2017-Oct-16 08:54N 51°20' E 003°11'0 0.0
2017-Oct-16 08:30N 51°20' E 003°11'0 0.0
2017-Oct-16 07:59N 51°20' E 003°11'0 0.0
2017-Oct-16 07:29N 51°20' E 003°11'0 0.0
2017-Oct-16 07:00N 51°20' E 003°11'2 3.6
2017-Oct-16 06:30N 51°22' E 003°11'815.2
2017-Oct-16 06:00N 51°25' E 002°60'815.2
2017-Oct-16 05:30N 51°30' E 002°51'715.0
2017-Oct-16 05:01N 51°35' E 002°42'814.6
2017-Oct-16 04:28N 51°43' E 002°38'715.3
2017-Oct-16 04:00N 51°50' E 002°35'815.9
2017-Oct-16 03:30N 51°57' E 002°31'915.9
2017-Oct-16 02:58N 52°05' E 002°26'2115.9
2017-Oct-16 01:38N 52°24' E 002°11'616.0
2017-Oct-16 01:17N 52°29' E 002°07'1015.8
2017-Oct-16 00:39N 52°38' E 002°00'1715.0
2017-Oct-15 23:33N 52°51' E 001°42'115.2
2017-Oct-15 23:31N 52°51' E 001°41'815.0
2017-Oct-15 22:59N 52°57' E 001°32'2015.5
2017-Oct-15 21:42N 53°12' E 001°11'315.5
2017-Oct-15 21:29N 53°15' E 001°08'3215.6
2017-Oct-15 19:27N 53°29' E 000°21'1216.2
2017-Oct-15 18:42N 53°35' E 000°03'417.6
2017-Oct-15 18:30N 53°36' W 000°03'714.8
2017-Oct-15 18:00N 53°41' W 000°13'4 8.7
2017-Oct-15 17:30N 53°44' W 000°16'0 0.2
2017-Oct-15 17:00N 53°45' W 000°16'0 0.0
2017-Oct-15 16:29N 53°45' W 000°16'0 0.0
2017-Oct-15 15:59N 53°45' W 000°16'0 0.0
2017-Oct-15 15:29N 53°45' W 000°16'0 0.0
2017-Oct-15 14:59N 53°45' W 000°16'0 0.0
2017-Oct-15 13:58N 53°45' W 000°16'0 0.0
2017-Oct-15 13:28N 53°45' W 000°16'0 0.0
2017-Oct-15 12:58N 53°45' W 000°16'0 0.0
2017-Oct-15 12:28N 53°45' W 000°16'0 0.0
2017-Oct-15 12:01N 53°45' W 000°16'0 0.0
2017-Oct-15 11:30N 53°45' W 000°16'0 0.0
2017-Oct-15 11:00N 53°45' W 000°16'0 0.0
2017-Oct-15 10:30N 53°45' W 000°16'0 0.0
2017-Oct-15 10:00N 53°45' W 000°16'0 0.0
2017-Oct-15 09:29N 53°45' W 000°16'0 0.0
2017-Oct-15 08:59N 53°45' W 000°16'0 0.0
2017-Oct-15 08:29N 53°45' W 000°16'0 0.0
2017-Oct-15 08:00N 53°45' W 000°16'0 0.2
2017-Oct-15 07:30N 53°44' W 000°16'0 0.3
2017-Oct-15 07:00N 53°44' W 000°17'4 8.3
2017-Oct-15 06:30N 53°41' W 000°13'510.3
2017-Oct-15 06:00N 53°37' W 000°07'612.5
2017-Oct-15 05:30N 53°35' E 000°03'1813.0
2017-Oct-15 04:09N 53°28' E 000°30'313.2
2017-Oct-15 03:55N 53°27' E 000°35'613.3
2017-Oct-15 03:27N 53°24' E 000°45'613.1
2017-Oct-15 03:01N 53°22' E 000°53'612.6
2017-Oct-15 02:30N 53°18' E 001°02'712.9
2017-Oct-15 01:58N 53°13' E 001°10'713.1
2017-Oct-15 01:25N 53°08' E 001°18'613.4
2017-Oct-15 01:01N 53°03' E 001°24'713.8
2017-Oct-15 00:30N 52°58' E 001°31'714.9
2017-Oct-15 00:00N 52°53' E 001°40'815.5
2017-Oct-14 23:30N 52°48' E 001°49'815.7
2017-Oct-14 23:00N 52°42' E 001°58'816.1
2017-Oct-14 22:30N 52°35' E 002°05'916.2
2017-Oct-14 21:57N 52°27' E 002°12'716.2
2017-Oct-14 21:30N 52°20' E 002°16'815.8
2017-Oct-14 21:00N 52°13' E 002°20'815.5
2017-Oct-14 20:30N 52°06' E 002°25'815.3
2017-Oct-14 19:57N 51°58' E 002°31'715.1
2017-Oct-14 19:30N 51°51' E 002°34'815.2
2017-Oct-14 19:00N 51°44' E 002°39'714.5
2017-Oct-14 18:29N 51°38' E 002°45'714.4
2017-Oct-14 18:00N 51°32' E 002°51'714.9
2017-Oct-14 17:30N 51°27' E 002°59'714.1
2017-Oct-14 17:00N 51°23' E 003°09'3 6.7
2017-Oct-14 16:30N 51°20' E 003°11'0 0.1
2017-Oct-14 16:00N 51°20' E 003°11'0 0.0
2017-Oct-14 15:30N 51°20' E 003°11'0 0.0
2017-Oct-14 15:00N 51°20' E 003°11'0 0.0
2017-Oct-14 14:30N 51°20' E 003°11'0 0.0
2017-Oct-14 14:00N 51°20' E 003°11'0 0.0
2017-Oct-14 13:29N 51°20' E 003°11'0 0.0
2017-Oct-14 12:59N 51°20' E 003°11'0 0.0
2017-Oct-14 12:29N 51°20' E 003°11'0 0.0
2017-Oct-14 11:59N 51°20' E 003°11'0 0.0
2017-Oct-14 11:29N 51°20' E 003°11'0 0.0
2017-Oct-14 10:58N 51°20' E 003°11'0 0.0
2017-Oct-14 10:28N 51°20' E 003°11'0 0.0
2017-Oct-14 09:58N 51°20' E 003°11'0 0.0
2017-Oct-14 09:28N 51°20' E 003°11'0 0.0
2017-Oct-14 09:00N 51°20' E 003°11'0 0.0
2017-Oct-14 08:30N 51°20' E 003°11'0 0.0
2017-Oct-14 08:00N 51°20' E 003°11'0 0.0
2017-Oct-14 07:26N 51°20' E 003°11'0 0.8
2017-Oct-14 07:00N 51°21' E 003°12'612.4
2017-Oct-14 06:30N 51°24' E 003°04'815.3
2017-Oct-14 06:00N 51°28' E 002°53'815.4
2017-Oct-14 05:29N 51°34' E 002°44'715.0
2017-Oct-14 05:00N 51°40' E 002°39'815.4
2017-Oct-14 04:30N 51°48' E 002°35'815.7
2017-Oct-14 04:00N 51°55' E 002°30'815.7
2017-Oct-14 03:30N 52°02' E 002°26'815.9
2017-Oct-14 03:00N 52°10' E 002°20'815.9
2017-Oct-14 02:28N 52°17' E 002°15'1815.7
2017-Oct-14 01:19N 52°34' E 002°03'516.2
2017-Oct-14 01:00N 52°38' E 001°59'1515.5
2017-Oct-14 00:04N 52°49' E 001°43'316.1
2017-Oct-13 23:52N 52°51' E 001°39'1515.9
2017-Oct-13 22:57N 52°59' E 001°18'5015.2
2017-Oct-13 19:38N 53°32' E 000°15'514.2
2017-Oct-13 19:17N 53°34' E 000°07'715.0
2017-Oct-13 18:49N 53°36' W 000°04'413.0
2017-Oct-13 18:30N 53°38' W 000°10'612.9
2017-Oct-13 18:00N 53°44' W 000°16'1 1.7
2017-Oct-13 17:30N 53°44' W 000°16'0 0.2
2017-Oct-13 16:59N 53°45' W 000°16'0 0.0
2017-Oct-13 16:29N 53°45' W 000°16'0 0.0
2017-Oct-13 15:59N 53°45' W 000°16'0 0.0
2017-Oct-13 15:29N 53°45' W 000°16'0 0.0
2017-Oct-13 14:59N 53°45' W 000°16'0 0.0
2017-Oct-13 14:28N 53°45' W 000°16'0 0.0
2017-Oct-13 13:58N 53°45' W 000°16'0 0.0
2017-Oct-13 13:28N 53°45' W 000°16'0 0.0
2017-Oct-13 12:58N 53°45' W 000°16'0 0.0
2017-Oct-13 12:30N 53°45' W 000°16'0 0.0
2017-Oct-13 12:00N 53°45' W 000°16'0 0.0
2017-Oct-13 11:30N 53°45' W 000°16'0 0.0
2017-Oct-13 11:00N 53°45' W 000°16'0 0.0
2017-Oct-13 10:30N 53°45' W 000°16'0 0.0
2017-Oct-13 09:59N 53°45' W 000°16'0 0.0
2017-Oct-13 09:29N 53°45' W 000°16'0 0.0
2017-Oct-13 08:59N 53°45' W 000°16'0 0.0
2017-Oct-13 08:29N 53°45' W 000°16'0 0.0
2017-Oct-13 07:59N 53°45' W 000°16'0 0.3
2017-Oct-13 07:30N 53°44' W 000°16'0 0.4
2017-Oct-13 07:00N 53°44' W 000°16'0 0.3
2017-Oct-13 06:30N 53°44' W 000°16'611.2
2017-Oct-13 06:00N 53°39' W 000°12'612.8
2017-Oct-13 05:30N 53°36' W 000°03'914.5
2017-Oct-13 04:54N 53°33' E 000°11'4714.1
2017-Oct-13 01:34N 53°02' E 001°09'1413.2
2017-Oct-13 00:30N 52°56' E 001°31'1512.9
2017-Oct-12 23:18N 52°46' E 001°50'1514.2
2017-Oct-12 22:13N 52°34' E 002°05'5916.6
2017-Oct-12 18:41N 51°40' E 002°43'616.4
2017-Oct-12 18:21N 51°36' E 002°48'516.1
2017-Oct-12 18:00N 51°31' E 002°53'815.7
2017-Oct-12 17:30N 51°25' E 003°01'713.4
2017-Oct-12 17:00N 51°22' E 003°11'2 3.7
2017-Oct-12 16:30N 51°20' E 003°11'0 0.0
2017-Oct-12 16:00N 51°20' E 003°11'0 0.0
2017-Oct-12 15:29N 51°20' E 003°11'0 0.0
2017-Oct-12 14:59N 51°20' E 003°11'0 0.0
2017-Oct-12 14:29N 51°20' E 003°11'0 0.0
2017-Oct-12 13:59N 51°20' E 003°11'0 0.0
2017-Oct-12 13:28N 51°20' E 003°11'0 0.0
2017-Oct-12 12:58N 51°20' E 003°11'0 0.0
2017-Oct-12 12:28N 51°20' E 003°11'0 0.0
2017-Oct-12 11:55N 51°20' E 003°11'0 0.0
2017-Oct-12 11:28N 51°20' E 003°11'0 0.0
2017-Oct-12 10:57N 51°20' E 003°11'0 0.0
2017-Oct-12 10:27N 51°20' E 003°11'0 0.0
2017-Oct-12 10:00N 51°20' E 003°11'0 0.0
2017-Oct-12 09:27N 51°20' E 003°11'0 0.0
2017-Oct-12 08:59N 51°20' E 003°11'0 0.0
2017-Oct-12 08:29N 51°20' E 003°11'0 0.0
2017-Oct-12 07:59N 51°20' E 003°11'0 0.0
2017-Oct-12 07:26N 51°20' E 003°11'0 0.0
2017-Oct-12 06:59N 51°20' E 003°11'1 2.4
2017-Oct-12 06:31N 51°21' E 003°12'815.6
2017-Oct-12 06:01N 51°25' E 003°01'815.7
2017-Oct-12 05:30N 51°30' E 002°51'8415.8
2017-Oct-12 00:12N 52°46' E 001°52'1417.5
2017-Oct-11 23:26N 52°54' E 001°34'1917.3
2017-Oct-11 22:20N 53°02' E 001°06'5016.2
2017-Oct-11 19:15N 53°35' E 000°02'314.3
2017-Oct-11 19:00N 53°36' W 000°03'612.6
2017-Oct-11 18:31N 53°39' W 000°12'611.1
2017-Oct-11 18:00N 53°44' W 000°17'0 0.7
2017-Oct-11 17:30N 53°45' W 000°16'0 0.3
2017-Oct-11 17:00N 53°45' W 000°16'94 5.6
2017-Oct-11 00:01N 52°47' E 001°48'713.8
2017-Oct-10 23:30N 52°43' E 001°57'714.1
2017-Oct-10 23:00N 52°36' E 002°02'6615.8
2017-Oct-10 18:51N 51°36' E 002°46'  
Track history (hours):
 
Tides and Currents Weather Stations Pressure Air Temp Water Temp Dewpoint Dewpoint Depression Visibility Wind Speed Wind Dir Waves Ship Positions

Pride Of Bruges

Operator: P&O Ferries

Last reported at 2017-Oct-20 18:45 UTC. Time now 2017-Oct-20 19:51 UTC.
Position N 51°37' E 002°47'.

Length 180 m; draft 5.8 m.

Type: Ship (hazmat cat B). MMSI: 244387000.

Date/timePositionNaut miles runAvg speedWind from/ knotsBaromVisibWave heightAir tempDewpointWater temp
2017-Oct-20 18:45N 51°37' E 002°47'314.4
2017-Oct-20 18:30N 51°34' E 002°50'714.7
2017-Oct-20 18:00N 51°28' E 002°56'713.8
2017-Oct-20 17:30N 51°24' E 003°06'510.2
2017-Oct-20 17:00N 51°21' E 003°12'0 0.8
2017-Oct-20 16:29N 51°20' E 003°11'0 0.0
2017-Oct-20 15:59N 51°20' E 003°11'0 0.0
2017-Oct-20 15:26N 51°20' E 003°11'0 0.0
2017-Oct-20 14:59N 51°20' E 003°11'0 0.0
2017-Oct-20 13:58N 51°20' E 003°11'0 0.0
2017-Oct-20 13:28N 51°20' E 003°11'0 0.0
2017-Oct-20 12:58N 51°20' E 003°11'0 0.0
2017-Oct-20 12:31N 51°20' E 003°11'0 0.0
2017-Oct-20 12:00N 51°20' E 003°11'0 0.0
2017-Oct-20 11:30N 51°20' E 003°11'0 0.0
2017-Oct-20 11:00N 51°20' E 003°11'0 0.0
2017-Oct-20 10:30N 51°20' E 003°11'0 0.0
2017-Oct-20 10:00N 51°20' E 003°11'0 0.0
2017-Oct-20 09:29N 51°20' E 003°11'0 0.0
2017-Oct-20 08:59N 51°20' E 003°11'0 0.0
2017-Oct-20 08:29N 51°20' E 003°11'0 0.0
2017-Oct-20 07:59N 51°20' E 003°11'0 0.0
2017-Oct-20 07:30N 51°20' E 003°11'1 2.1
2017-Oct-20 07:00N 51°21' E 003°12'815.5
2017-Oct-20 06:30N 51°25' E 003°01'816.2
2017-Oct-20 06:00N 51°29' E 002°50'6715.0
2017-Oct-20 01:32N 52°31' E 002°08'113.9
2017-Oct-20 01:29N 52°31' E 002°07'714.4
2017-Oct-20 01:00N 52°38' E 002°03'714.5
2017-Oct-20 00:30N 52°45' E 001°58'715.2
2017-Oct-20 00:01N 52°48' E 001°48'815.9
2017-Oct-19 23:31N 52°53' E 001°37'815.5
2017-Oct-19 23:00N 52°57' E 001°26'715.0
2017-Oct-19 22:31N 52°60' E 001°14'4515.3
2017-Oct-19 19:33N 53°30' E 000°18'114.7
2017-Oct-19 19:27N 53°31' E 000°17'715.6
2017-Oct-19 19:00N 53°34' E 000°06'816.7
2017-Oct-19 18:30N 53°37' W 000°07'714.5
2017-Oct-19 18:00N 53°43' W 000°15'2 3.7
2017-Oct-19 17:31N 53°45' W 000°16'0 0.1
2017-Oct-19 17:00N 53°45' W 000°16'0 0.0
2017-Oct-19 16:29N 53°45' W 000°16'0 0.0
2017-Oct-19 15:59N 53°45' W 000°16'0 0.0
2017-Oct-19 15:29N 53°45' W 000°16'0 0.0
2017-Oct-19 14:59N 53°45' W 000°16'0 0.0
2017-Oct-19 14:29N 53°45' W 000°16'0 0.0
2017-Oct-19 13:58N 53°45' W 000°16'0 0.0
2017-Oct-19 13:28N 53°45' W 000°16'0 0.0
2017-Oct-19 12:58N 53°45' W 000°16'0 0.0
2017-Oct-19 12:28N 53°45' W 000°16'0 0.0
2017-Oct-19 12:00N 53°45' W 000°16'0 0.0
2017-Oct-19 11:30N 53°45' W 000°16'0 0.0
2017-Oct-19 11:00N 53°45' W 000°16'0 0.0
2017-Oct-19 10:30N 53°45' W 000°16'0 0.0
2017-Oct-19 10:00N 53°45' W 000°16'0 0.0
2017-Oct-19 09:29N 53°45' W 000°16'0 0.0
2017-Oct-19 08:59N 53°45' W 000°16'0 0.0
2017-Oct-19 08:29N 53°45' W 000°16'0 0.0
2017-Oct-19 07:59N 53°45' W 000°16'0 0.0
2017-Oct-19 07:28N 53°45' W 000°16'0 0.3
2017-Oct-19 07:00N 53°44' W 000°16'1 2.4
2017-Oct-19 06:30N 53°44' W 000°15'713.1
2017-Oct-19 06:00N 53°38' W 000°09'814.7
2017-Oct-19 05:27N 53°35' E 000°04'3914.1
2017-Oct-19 02:40N 53°18' E 001°03'1 7.1
2017-Oct-19 02:30N 53°17' E 001°04'914.7
2017-Oct-19 01:54N 53°10' E 001°14'1715.4
2017-Oct-19 00:48N 52°58' E 001°34'516.2
2017-Oct-19 00:31N 52°55' E 001°39'1716.7
2017-Oct-18 23:29N 52°43' E 002°00'816.0
2017-Oct-18 23:01N 52°36' E 002°03'6814.5
2017-Oct-18 18:19N 51°34' E 002°49'515.8
2017-Oct-18 18:00N 51°30' E 002°54'815.6
2017-Oct-18 17:30N 51°25' E 003°03'713.7
2017-Oct-18 17:00N 51°21' E 003°12'1 1.4
2017-Oct-18 16:23N 51°20' E 003°11'0 0.0
2017-Oct-18 15:59N 51°20' E 003°11'0 0.0
2017-Oct-18 15:28N 51°20' E 003°11'0 0.0
2017-Oct-18 14:58N 51°20' E 003°11'0 0.0
2017-Oct-18 14:00N 51°20' E 003°11'0 0.0
2017-Oct-18 13:25N 51°20' E 003°11'0 0.0
2017-Oct-18 13:00N 51°20' E 003°11'0 0.0
2017-Oct-18 12:30N 51°20' E 003°11'0 0.0
2017-Oct-18 12:00N 51°20' E 003°11'0 0.0
2017-Oct-18 11:30N 51°20' E 003°11'0 0.0
2017-Oct-18 10:53N 51°20' E 003°11'0 0.0
2017-Oct-18 10:29N 51°20' E 003°11'0 0.0
2017-Oct-18 09:59N 51°20' E 003°11'0 0.0
2017-Oct-18 09:29N 51°20' E 003°11'0 0.0
2017-Oct-18 08:59N 51°20' E 003°11'0 0.0
2017-Oct-18 08:25N 51°20' E 003°11'0 0.0
2017-Oct-18 07:58N 51°20' E 003°11'0 0.0
2017-Oct-18 07:28N 51°20' E 003°11'0 0.0
2017-Oct-18 07:00N 51°20' E 003°11'2 4.4
2017-Oct-18 06:31N 51°22' E 003°11'714.6
2017-Oct-18 06:00N 51°25' E 002°60'715.0
2017-Oct-18 05:31N 51°30' E 002°50'815.1
2017-Oct-18 04:58N 51°36' E 002°41'715.1
2017-Oct-18 04:29N 51°43' E 002°38'715.5
2017-Oct-18 04:01N 51°50' E 002°34'816.2
2017-Oct-18 03:31N 51°57' E 002°29'816.1
2017-Oct-18 02:59N 52°05' E 002°24'815.9
2017-Oct-18 02:31N 52°12' E 002°20'815.8
2017-Oct-18 02:00N 52°20' E 002°15'815.5
2017-Oct-18 01:30N 52°27' E 002°10'1914.9
2017-Oct-18 00:13N 52°44' E 001°55'414.4
2017-Oct-17 23:58N 52°46' E 001°51'715.1
2017-Oct-17 23:31N 52°51' E 001°43'815.3
2017-Oct-17 22:59N 52°57' E 001°33'2016.0
2017-Oct-17 21:43N 53°12' E 001°11'816.2
2017-Oct-17 21:12N 53°18' E 001°02'616.2
2017-Oct-17 20:51N 53°22' E 000°54'2116.4
2017-Oct-17 19:33N 53°30' E 000°21'115.6
2017-Oct-17 19:28N 53°30' E 000°19'716.2
2017-Oct-17 19:01N 53°33' E 000°08'918.6
2017-Oct-17 18:31N 53°37' W 000°06'816.2
2017-Oct-17 18:00N 53°44' W 000°15'1 2.0
2017-Oct-17 17:30N 53°45' W 000°16'0 0.2
2017-Oct-17 17:00N 53°45' W 000°16'0 0.0
2017-Oct-17 16:30N 53°45' W 000°16'0 0.0
2017-Oct-17 16:00N 53°45' W 000°16'0 0.0
2017-Oct-17 15:30N 53°45' W 000°16'0 0.0
2017-Oct-17 15:00N 53°45' W 000°16'0 0.0
2017-Oct-17 14:30N 53°45' W 000°16'0 0.0
2017-Oct-17 14:00N 53°45' W 000°16'0 0.0
2017-Oct-17 13:30N 53°45' W 000°16'0 0.0
2017-Oct-17 13:00N 53°45' W 000°16'0 0.0
2017-Oct-17 12:30N 53°45' W 000°16'0 0.0
2017-Oct-17 12:00N 53°45' W 000°16'0 0.0
2017-Oct-17 11:30N 53°45' W 000°16'0 0.0
2017-Oct-17 11:00N 53°45' W 000°16'0 0.0
2017-Oct-17 10:30N 53°45' W 000°16'0 0.0
2017-Oct-17 10:00N 53°45' W 000°16'0 0.0
2017-Oct-17 09:30N 53°45' W 000°16'0 0.0
2017-Oct-17 09:00N 53°45' W 000°16'0 0.0
2017-Oct-17 08:30N 53°45' W 000°16'0 0.0
2017-Oct-17 08:00N 53°45' W 000°16'0 0.3
2017-Oct-17 07:30N 53°45' W 000°16'0 0.4
2017-Oct-17 07:00N 53°44' W 000°16'0 0.5
2017-Oct-17 06:30N 53°44' W 000°16'4 7.8
2017-Oct-17 06:00N 53°41' W 000°13'612.7
2017-Oct-17 05:30N 53°37' W 000°05'713.9
2017-Oct-17 05:01N 53°34' E 000°06'713.3
2017-Oct-17 04:30N 53°32' E 000°17'4814.0
2017-Oct-17 01:04N 52°60' E 001°16'116.9
2017-Oct-17 00:59N 52°59' E 001°18'1617.8
2017-Oct-17 00:04N 52°50' E 001°41'118.3
2017-Oct-17 00:01N 52°50' E 001°42'1018.2
2017-Oct-16 23:28N 52°44' E 001°55'1518.1
2017-Oct-16 22:40N 52°31' E 002°06'1217.1
2017-Oct-16 21:59N 52°20' E 002°13'815.9
2017-Oct-16 21:30N 52°13' E 002°18'815.6
2017-Oct-16 21:00N 52°06' E 002°22'815.5
2017-Oct-16 20:29N 51°58' E 002°26'1015.6
2017-Oct-16 19:51N 51°49' E 002°34'815.5
2017-Oct-16 19:22N 51°43' E 002°39'715.1
2017-Oct-16 18:53N 51°36' E 002°45'615.6
2017-Oct-16 18:30N 51°32' E 002°51'815.8
2017-Oct-16 18:00N 51°26' E 002°60'714.5
2017-Oct-16 17:31N 51°23' E 003°10'3 5.0
2017-Oct-16 17:00N 51°20' E 003°11'0 0.0
2017-Oct-16 16:30N 51°20' E 003°11'0 0.0
2017-Oct-16 16:00N 51°20' E 003°11'0 0.0
2017-Oct-16 15:26N 51°20' E 003°11'0 0.0
2017-Oct-16 14:59N 51°20' E 003°11'0 0.0
2017-Oct-16 14:29N 51°20' E 003°11'0 0.0
2017-Oct-16 13:26N 51°20' E 003°11'0 0.0
2017-Oct-16 12:58N 51°20' E 003°11'0 0.0
2017-Oct-16 12:28N 51°20' E 003°11'0 0.0
2017-Oct-16 11:58N 51°20' E 003°11'0 0.0
2017-Oct-16 11:28N 51°20' E 003°11'0 0.0
2017-Oct-16 10:57N 51°20' E 003°11'0 0.0
2017-Oct-16 10:30N 51°20' E 003°11'0 0.0
2017-Oct-16 09:57N 51°20' E 003°11'0 0.0
2017-Oct-16 09:30N 51°20' E 003°11'0 0.0
2017-Oct-16 08:54N 51°20' E 003°11'0 0.0
2017-Oct-16 08:30N 51°20' E 003°11'0 0.0
2017-Oct-16 07:59N 51°20' E 003°11'0 0.0
2017-Oct-16 07:29N 51°20' E 003°11'0 0.0
2017-Oct-16 07:00N 51°20' E 003°11'2 3.6
2017-Oct-16 06:30N 51°22' E 003°11'815.2
2017-Oct-16 06:00N 51°25' E 002°60'815.2
2017-Oct-16 05:30N 51°30' E 002°51'715.0
2017-Oct-16 05:01N 51°35' E 002°42'814.6
2017-Oct-16 04:28N 51°43' E 002°38'715.3
2017-Oct-16 04:00N 51°50' E 002°35'815.9
2017-Oct-16 03:30N 51°57' E 002°31'915.9
2017-Oct-16 02:58N 52°05' E 002°26'2115.9
2017-Oct-16 01:38N 52°24' E 002°11'616.0
2017-Oct-16 01:17N 52°29' E 002°07'1015.8
2017-Oct-16 00:39N 52°38' E 002°00'1715.0
2017-Oct-15 23:33N 52°51' E 001°42'115.2
2017-Oct-15 23:31N 52°51' E 001°41'815.0
2017-Oct-15 22:59N 52°57' E 001°32'2015.5
2017-Oct-15 21:42N 53°12' E 001°11'315.5
2017-Oct-15 21:29N 53°15' E 001°08'3215.6
2017-Oct-15 19:27N 53°29' E 000°21'1216.2
2017-Oct-15 18:42N 53°35' E 000°03'417.6
2017-Oct-15 18:30N 53°36' W 000°03'714.8
2017-Oct-15 18:00N 53°41' W 000°13'4 8.7
2017-Oct-15 17:30N 53°44' W 000°16'0 0.2
2017-Oct-15 17:00N 53°45' W 000°16'0 0.0
2017-Oct-15 16:29N 53°45' W 000°16'0 0.0
2017-Oct-15 15:59N 53°45' W 000°16'0 0.0
2017-Oct-15 15:29N 53°45' W 000°16'0 0.0
2017-Oct-15 14:59N 53°45' W 000°16'0 0.0
2017-Oct-15 13:58N 53°45' W 000°16'0 0.0
2017-Oct-15 13:28N 53°45' W 000°16'0 0.0
2017-Oct-15 12:58N 53°45' W 000°16'0 0.0
2017-Oct-15 12:28N 53°45' W 000°16'0 0.0
2017-Oct-15 12:01N 53°45' W 000°16'0 0.0
2017-Oct-15 11:30N 53°45' W 000°16'0 0.0
2017-Oct-15 11:00N 53°45' W 000°16'0 0.0
2017-Oct-15 10:30N 53°45' W 000°16'0 0.0
2017-Oct-15 10:00N 53°45' W 000°16'0 0.0
2017-Oct-15 09:29N 53°45' W 000°16'0 0.0
2017-Oct-15 08:59N 53°45' W 000°16'0 0.0
2017-Oct-15 08:29N 53°45' W 000°16'0 0.0
2017-Oct-15 08:00N 53°45' W 000°16'0 0.2
2017-Oct-15 07:30N 53°44' W 000°16'0 0.3
2017-Oct-15 07:00N 53°44' W 000°17'4 8.3
2017-Oct-15 06:30N 53°41' W 000°13'510.3
2017-Oct-15 06:00N 53°37' W 000°07'612.5
2017-Oct-15 05:30N 53°35' E 000°03'1813.0
2017-Oct-15 04:09N 53°28' E 000°30'313.2
2017-Oct-15 03:55N 53°27' E 000°35'613.3
2017-Oct-15 03:27N 53°24' E 000°45'613.1
2017-Oct-15 03:01N 53°22' E 000°53'612.6
2017-Oct-15 02:30N 53°18' E 001°02'712.9
2017-Oct-15 01:58N 53°13' E 001°10'713.1
2017-Oct-15 01:25N 53°08' E 001°18'613.4
2017-Oct-15 01:01N 53°03' E 001°24'713.8
2017-Oct-15 00:30N 52°58' E 001°31'714.9
2017-Oct-15 00:00N 52°53' E 001°40'815.5
2017-Oct-14 23:30N 52°48' E 001°49'815.7
2017-Oct-14 23:00N 52°42' E 001°58'816.1
2017-Oct-14 22:30N 52°35' E 002°05'916.2
2017-Oct-14 21:57N 52°27' E 002°12'716.2
2017-Oct-14 21:30N 52°20' E 002°16'815.8
2017-Oct-14 21:00N 52°13' E 002°20'815.5
2017-Oct-14 20:30N 52°06' E 002°25'815.3
2017-Oct-14 19:57N 51°58' E 002°31'715.1
2017-Oct-14 19:30N 51°51' E 002°34'815.2
2017-Oct-14 19:00N 51°44' E 002°39'714.5
2017-Oct-14 18:29N 51°38' E 002°45'714.4
2017-Oct-14 18:00N 51°32' E 002°51'714.9
2017-Oct-14 17:30N 51°27' E 002°59'714.1
2017-Oct-14 17:00N 51°23' E 003°09'3 6.7
2017-Oct-14 16:30N 51°20' E 003°11'0 0.1
2017-Oct-14 16:00N 51°20' E 003°11'0 0.0
2017-Oct-14 15:30N 51°20' E 003°11'0 0.0
2017-Oct-14 15:00N 51°20' E 003°11'0 0.0
2017-Oct-14 14:30N 51°20' E 003°11'0 0.0
2017-Oct-14 14:00N 51°20' E 003°11'0 0.0
2017-Oct-14 13:29N 51°20' E 003°11'0 0.0
2017-Oct-14 12:59N 51°20' E 003°11'0 0.0
2017-Oct-14 12:29N 51°20' E 003°11'0 0.0
2017-Oct-14 11:59N 51°20' E 003°11'0 0.0
2017-Oct-14 11:29N 51°20' E 003°11'0 0.0
2017-Oct-14 10:58N 51°20' E 003°11'0 0.0
2017-Oct-14 10:28N 51°20' E 003°11'0 0.0
2017-Oct-14 09:58N 51°20' E 003°11'0 0.0
2017-Oct-14 09:28N 51°20' E 003°11'0 0.0
2017-Oct-14 09:00N 51°20' E 003°11'0 0.0
2017-Oct-14 08:30N 51°20' E 003°11'0 0.0
2017-Oct-14 08:00N 51°20' E 003°11'0 0.0
2017-Oct-14 07:26N 51°20' E 003°11'0 0.8
2017-Oct-14 07:00N 51°21' E 003°12'612.4
2017-Oct-14 06:30N 51°24' E 003°04'815.3
2017-Oct-14 06:00N 51°28' E 002°53'815.4
2017-Oct-14 05:29N 51°34' E 002°44'715.0
2017-Oct-14 05:00N 51°40' E 002°39'815.4
2017-Oct-14 04:30N 51°48' E 002°35'815.7
2017-Oct-14 04:00N 51°55' E 002°30'815.7
2017-Oct-14 03:30N 52°02' E 002°26'815.9
2017-Oct-14 03:00N 52°10' E 002°20'815.9
2017-Oct-14 02:28N 52°17' E 002°15'1815.7
2017-Oct-14 01:19N 52°34' E 002°03'516.2
2017-Oct-14 01:00N 52°38' E 001°59'1515.5
2017-Oct-14 00:04N 52°49' E 001°43'316.1
2017-Oct-13 23:52N 52°51' E 001°39'1515.9
2017-Oct-13 22:57N 52°59' E 001°18'5015.2
2017-Oct-13 19:38N 53°32' E 000°15'514.2
2017-Oct-13 19:17N 53°34' E 000°07'715.0
2017-Oct-13 18:49N 53°36' W 000°04'413.0
2017-Oct-13 18:30N 53°38' W 000°10'612.9
2017-Oct-13 18:00N 53°44' W 000°16'1 1.7
2017-Oct-13 17:30N 53°44' W 000°16'0 0.2
2017-Oct-13 16:59N 53°45' W 000°16'0 0.0
2017-Oct-13 16:29N 53°45' W 000°16'0 0.0
2017-Oct-13 15:59N 53°45' W 000°16'0 0.0
2017-Oct-13 15:29N 53°45' W 000°16'0 0.0
2017-Oct-13 14:59N 53°45' W 000°16'0 0.0
2017-Oct-13 14:28N 53°45' W 000°16'0 0.0
2017-Oct-13 13:58N 53°45' W 000°16'0 0.0
2017-Oct-13 13:28N 53°45' W 000°16'0 0.0
2017-Oct-13 12:58N 53°45' W 000°16'0 0.0
2017-Oct-13 12:30N 53°45' W 000°16'0 0.0
2017-Oct-13 12:00N 53°45' W 000°16'0 0.0
2017-Oct-13 11:30N 53°45' W 000°16'0 0.0
2017-Oct-13 11:00N 53°45' W 000°16'0 0.0
2017-Oct-13 10:30N 53°45' W 000°16'0 0.0
2017-Oct-13 09:59N 53°45' W 000°16'0 0.0
2017-Oct-13 09:29N 53°45' W 000°16'0 0.0
2017-Oct-13 08:59N 53°45' W 000°16'0 0.0
2017-Oct-13 08:29N 53°45' W 000°16'0 0.0
2017-Oct-13 07:59N 53°45' W 000°16'0 0.3
2017-Oct-13 07:30N 53°44' W 000°16'0 0.4
2017-Oct-13 07:00N 53°44' W 000°16'0 0.3
2017-Oct-13 06:30N 53°44' W 000°16'611.2
2017-Oct-13 06:00N 53°39' W 000°12'612.8
2017-Oct-13 05:30N 53°36' W 000°03'914.5
2017-Oct-13 04:54N 53°33' E 000°11'4714.1
2017-Oct-13 01:34N 53°02' E 001°09'1413.2
2017-Oct-13 00:30N 52°56' E 001°31'1512.9
2017-Oct-12 23:18N 52°46' E 001°50'1514.2
2017-Oct-12 22:13N 52°34' E 002°05'5916.6
2017-Oct-12 18:41N 51°40' E 002°43'616.4
2017-Oct-12 18:21N 51°36' E 002°48'516.1
2017-Oct-12 18:00N 51°31' E 002°53'815.7
2017-Oct-12 17:30N 51°25' E 003°01'713.4
2017-Oct-12 17:00N 51°22' E 003°11'2 3.7
2017-Oct-12 16:30N 51°20' E 003°11'0 0.0
2017-Oct-12 16:00N 51°20' E 003°11'0 0.0
2017-Oct-12 15:29N 51°20' E 003°11'0 0.0
2017-Oct-12 14:59N 51°20' E 003°11'0 0.0
2017-Oct-12 14:29N 51°20' E 003°11'0 0.0
2017-Oct-12 13:59N 51°20' E 003°11'0 0.0
2017-Oct-12 13:28N 51°20' E 003°11'0 0.0
2017-Oct-12 12:58N 51°20' E 003°11'0 0.0
2017-Oct-12 12:28N 51°20' E 003°11'0 0.0
2017-Oct-12 11:55N 51°20' E 003°11'0 0.0
2017-Oct-12 11:28N 51°20' E 003°11'0 0.0
2017-Oct-12 10:57N 51°20' E 003°11'0 0.0
2017-Oct-12 10:27N 51°20' E 003°11'0 0.0
2017-Oct-12 10:00N 51°20' E 003°11'0 0.0
2017-Oct-12 09:27N 51°20' E 003°11'0 0.0
2017-Oct-12 08:59N 51°20' E 003°11'0 0.0
2017-Oct-12 08:29N 51°20' E 003°11'0 0.0
2017-Oct-12 07:59N 51°20' E 003°11'0 0.0
2017-Oct-12 07:26N 51°20' E 003°11'0 0.0
2017-Oct-12 06:59N 51°20' E 003°11'1 2.4
2017-Oct-12 06:31N 51°21' E 003°12'815.6
2017-Oct-12 06:01N 51°25' E 003°01'815.7
2017-Oct-12 05:30N 51°30' E 002°51'8415.8
2017-Oct-12 00:12N 52°46' E 001°52'1417.5
2017-Oct-11 23:26N 52°54' E 001°34'1917.3
2017-Oct-11 22:20N 53°02' E 001°06'5016.2
2017-Oct-11 19:15N 53°35' E 000°02'314.3
2017-Oct-11 19:00N 53°36' W 000°03'612.6
2017-Oct-11 18:31N 53°39' W 000°12'611.1
2017-Oct-11 18:00N 53°44' W 000°17'0 0.7
2017-Oct-11 17:30N 53°45' W 000°16'0 0.3
2017-Oct-11 17:00N 53°45' W 000°16'94 5.6
2017-Oct-11 00:01N 52°47' E 001°48'713.8
2017-Oct-10 23:30N 52°43' E 001°57'714.1
2017-Oct-10 23:00N 52°36' E 002°02'6615.8
2017-Oct-10 18:51N 51°36' E 002°46'  

Dump ship's entire track history